Time;durP1;ratioP1;P1;durP2;ratioP2;P2;SDS_P1;SDS_P2;PMS_P1;PMS_P2;Temp;Humidity;BMP_temperature;BMP_pressure;BME280_temperature;BME280_humidity;BME280_pressure;Samples;Min_cycle;Max_cycle;Signal;HPM_P1;HPM_P2
2021/09/06 00:00:10;;;;;;;6.95;6.25;;;23.90;46.40;;;;;;5089780;28;20423;-64
2021/09/06 00:02:36;;;;;;;6.80;5.90;;;23.90;46.30;;;;;;5092090;28;20107;-64
2021/09/06 00:05:04;;;;;;;7.00;6.30;;;23.90;45.90;;;;;;5087917;28;20107;-64
2021/09/06 00:07:30;;;;;;;8.13;6.50;;;24.00;45.80;;;;;;5093893;28;20111;-64
2021/09/06 00:10:13;;;;;;;6.78;5.55;;;24.00;45.50;;;;;;5092781;28;20102;-64
2021/09/06 00:12:39;;;;;;;7.05;6.03;;;24.10;45.90;;;;;;5094268;28;20039;-64
2021/09/06 00:15:05;;;;;;;9.02;6.00;;;24.10;45.00;;;;;;5093013;28;20028;-64
2021/09/06 00:17:30;;;;;;;7.82;5.70;;;24.10;45.30;;;;;;5093966;28;20044;-64
2021/09/06 00:19:56;;;;;;;7.13;6.50;;;24.10;44.60;;;;;;5090841;28;20030;-64
2021/09/06 00:22:22;;;;;;;8.30;5.93;;;24.10;44.90;;;;;;5093973;28;20028;-64
2021/09/06 00:24:50;;;;;;;7.60;5.63;;;24.10;44.30;;;;;;5076859;28;20024;-64
2021/09/06 00:27:16;;;;;;;5.75;5.25;;;24.10;44.10;;;;;;5094333;28;20032;-64
2021/09/06 00:29:42;;;;;;;9.00;5.38;;;24.10;44.20;;;;;;5072935;28;20044;-64
2021/09/06 00:32:07;;;;;;;5.60;5.10;;;24.10;44.60;;;;;;5075337;28;20034;-64
2021/09/06 00:34:33;;;;;;;7.90;5.57;;;24.10;44.40;;;;;;5092579;28;20024;-64
2021/09/06 00:36:58;;;;;;;6.32;5.30;;;24.10;44.20;;;;;;5093356;28;20024;-64
2021/09/06 00:39:24;;;;;;;6.18;5.45;;;24.20;44.50;;;;;;5092361;28;20064;-64
2021/09/06 00:41:49;;;;;;;5.63;5.13;;;24.20;44.30;;;;;;5084364;28;20066;-64
2021/09/06 00:44:15;;;;;;;6.47;5.25;;;24.30;44.10;;;;;;5076117;28;20046;-64
2021/09/06 00:46:45;;;;;;;6.13;5.32;;;24.30;44.40;;;;;;5093241;28;20461;-64
2021/09/06 00:49:11;;;;;;;5.82;5.32;;;24.30;44.60;;;;;;5074088;28;20024;-64
2021/09/06 00:51:37;;;;;;;5.95;5.28;;;24.30;44.70;;;;;;5093181;28;20089;-64
2021/09/06 00:54:06;;;;;;;6.60;5.13;;;24.30;44.80;;;;;;5092249;28;20024;-64
2021/09/06 00:56:32;;;;;;;5.47;4.95;;;24.20;44.40;;;;;;5092840;28;20454;-64
2021/09/06 00:58:58;;;;;;;7.28;5.13;;;24.30;44.40;;;;;;5092410;28;20111;-64
2021/09/06 01:01:24;;;;;;;8.75;5.70;;;24.30;44.20;;;;;;5092478;28;20112;-64
2021/09/06 01:03:49;;;;;;;6.72;5.32;;;24.20;43.90;;;;;;5093123;28;20035;-64
2021/09/06 01:06:15;;;;;;;6.03;5.35;;;24.20;43.90;;;;;;5072309;28;20039;-64
2021/09/06 01:08:41;;;;;;;5.72;5.22;;;24.20;44.20;;;;;;5092737;28;20024;-64
2021/09/06 01:11:06;;;;;;;6.10;5.43;;;24.30;44.20;;;;;;5073590;28;20050;-64
2021/09/06 01:13:32;;;;;;;5.20;4.70;;;24.20;44.30;;;;;;5093121;28;20051;-64
2021/09/06 01:15:58;;;;;;;6.13;4.65;;;24.10;43.80;;;;;;5091934;28;20036;-64
2021/09/06 01:18:24;;;;;;;6.07;4.93;;;24.10;44.20;;;;;;5091786;28;20588;-64
2021/09/06 01:20:49;;;;;;;6.40;5.10;;;24.20;44.10;;;;;;5088319;28;20020;-64
2021/09/06 01:23:15;;;;;;;5.45;4.72;;;24.20;44.20;;;;;;5092873;28;20051;-64
2021/09/06 01:25:41;;;;;;;6.03;5.45;;;24.20;44.30;;;;;;5073112;28;20032;-64
2021/09/06 01:28:06;;;;;;;5.68;5.07;;;24.20;44.00;;;;;;5091855;28;20089;-64
2021/09/06 01:30:32;;;;;;;4.85;4.43;;;24.20;43.90;;;;;;5085581;28;20025;-64
2021/09/06 01:32:58;;;;;;;5.70;5.13;;;24.20;44.20;;;;;;5092694;28;20036;-64
2021/09/06 01:35:23;;;;;;;5.30;4.80;;;24.20;44.00;;;;;;5073741;28;20428;-64
2021/09/06 01:37:49;;;;;;;5.53;4.75;;;24.10;43.90;;;;;;5093027;28;20064;-64
2021/09/06 01:40:18;;;;;;;8.43;5.70;;;24.10;43.60;;;;;;5073731;28;20048;-64
2021/09/06 01:42:44;;;;;;;6.15;5.25;;;24.20;44.10;;;;;;5092758;28;20118;-64
2021/09/06 01:45:10;;;;;;;8.02;4.97;;;24.20;44.20;;;;;;5090335;28;20418;-64
2021/09/06 01:47:35;;;;;;;5.78;5.18;;;24.10;44.20;;;;;;5092494;28;20093;-64
2021/09/06 01:50:01;;;;;;;7.47;5.50;;;24.10;44.80;;;;;;5091660;28;20470;-64
2021/09/06 01:52:27;;;;;;;8.18;5.25;;;24.20;44.60;;;;;;5092261;28;20028;-64
2021/09/06 01:54:55;;;;;;;5.80;5.22;;;24.20;44.70;;;;;;5090594;28;20082;-64
2021/09/06 01:57:21;;;;;;;7.38;4.95;;;24.00;43.60;;;;;;5092459;28;20489;-64
2021/09/06 01:59:46;;;;;;;5.80;5.30;;;24.10;44.20;;;;;;5091694;28;20020;-64
2021/09/06 02:02:12;;;;;;;7.32;5.25;;;24.10;44.20;;;;;;5091390;28;20028;-64
2021/09/06 02:04:37;;;;;;;5.70;5.20;;;24.10;43.70;;;;;;5091785;28;20346;-64
2021/09/06 02:07:03;;;;;;;6.32;4.63;;;24.00;44.40;;;;;;5092639;28;20049;-64
2021/09/06 02:09:28;;;;;;;5.40;4.65;;;24.00;44.80;;;;;;5074415;28;20031;-64
2021/09/06 02:11:54;;;;;;;6.55;4.70;;;24.10;44.80;;;;;;5091440;28;20047;-64
2021/09/06 02:14:20;;;;;;;9.23;5.53;;;24.10;44.80;;;;;;5092430;28;20069;-64
2021/09/06 02:16:45;;;;;;;5.78;4.57;;;24.10;44.40;;;;;;5091009;28;20036;-64
2021/09/06 02:19:11;;;;;;;5.45;4.95;;;24.10;44.30;;;;;;5095625;28;20461;-64
2021/09/06 02:21:36;;;;;;;6.22;5.13;;;24.10;44.50;;;;;;5078496;28;20500;-64
2021/09/06 02:24:02;;;;;;;5.65;4.53;;;24.10;45.10;;;;;;5094841;28;20465;-64
2021/09/06 02:26:29;;;;;;;5.35;4.85;;;24.10;44.40;;;;;;5094561;28;20035;-64
2021/09/06 02:28:54;;;;;;;5.28;4.88;;;24.00;44.70;;;;;;5096233;28;20078;-64
2021/09/06 02:31:20;;;;;;;5.43;4.80;;;24.00;44.30;;;;;;5094722;28;20462;-64
2021/09/06 02:33:46;;;;;;;5.95;4.30;;;24.00;44.20;;;;;;5095938;28;20419;-64
2021/09/06 02:36:12;;;;;;;4.97;4.30;;;24.00;43.70;;;;;;5094795;28;20533;-64
2021/09/06 02:38:37;;;;;;;5.05;4.65;;;24.00;43.70;;;;;;5095508;28;20401;-64
2021/09/06 02:41:03;;;;;;;5.50;4.78;;;23.90;43.80;;;;;;5094904;28;20065;-64
2021/09/06 02:43:28;;;;;;;8.23;5.97;;;23.70;47.30;;;;;;5095765;28;20024;-63
2021/09/06 02:45:54;;;;;;;12.05;6.82;;;23.40;52.30;;;;;;5094558;28;20137;-63
2021/09/06 02:48:19;;;;;;;7.80;5.65;;;23.20;55.30;;;;;;5094262;28;20024;-63
2021/09/06 02:50:45;;;;;;;7.65;6.15;;;22.90;63.90;;;;;;5094535;28;20040;-62
2021/09/06 02:53:11;;;;;;;6.70;6.10;;;22.70;58.00;;;;;;5094504;28;20027;-63
2021/09/06 02:55:36;;;;;;;8.02;6.90;;;22.80;58.90;;;;;;5075242;28;20401;-62
2021/09/06 02:58:02;;;;;;;8.30;6.68;;;22.70;59.20;;;;;;5094955;28;20028;-62
2021/09/06 03:00:28;;;;;;;7.10;6.15;;;22.60;66.80;;;;;;5094324;28;20101;-62
2021/09/06 03:02:53;;;;;;;8.75;6.70;;;22.60;69.40;;;;;;5094959;28;20055;-62
2021/09/06 03:05:19;;;;;;;6.40;5.80;;;;;;;;;;5074264;28;20105;-62
2021/09/06 03:07:45;;;;;;;6.95;6.10;;;22.70;64.40;;;;;;5093864;28;20025;-62
2021/09/06 03:10:11;;;;;;;6.45;5.85;;;22.60;66.50;;;;;;5094056;28;20100;-62
2021/09/06 03:12:37;;;;;;;6.45;5.85;;;22.60;69.00;;;;;;5094900;28;20115;-62
2021/09/06 03:15:04;;;;;;;10.00;6.18;;;22.60;68.60;;;;;;5094099;28;20112;-63
2021/09/06 03:17:29;;;;;;;6.70;6.00;;;22.60;69.10;;;;;;5093738;28;20043;-63
2021/09/06 03:19:55;;;;;;;6.75;5.90;;;22.60;70.00;;;;;;5102183;28;20198;-63
2021/09/06 03:22:20;;;;;;;6.03;5.43;;;22.60;69.10;;;;;;5094454;28;20039;-63
2021/09/06 03:24:46;;;;;;;6.70;6.10;;;22.50;68.80;;;;;;5094341;28;20044;-63
2021/09/06 03:27:21;;;;;;;5.65;5.15;;;22.50;69.10;;;;;;5093519;28;20028;-64
2021/09/06 03:29:56;;;;;;;6.55;5.75;;;22.50;69.40;;;;;;5094565;28;20059;-63
2021/09/06 03:32:22;;;;;;;8.20;5.75;;;22.60;70.10;;;;;;5075422;28;20462;-63
2021/09/06 03:34:47;;;;;;;7.03;6.32;;;22.60;69.00;;;;;;5060965;28;20067;-63
2021/09/06 03:37:13;;;;;;;6.68;6.07;;;22.60;69.60;;;;;;5092034;28;20113;-63
2021/09/06 03:39:38;;;;;;;6.80;6.20;;;22.50;69.40;;;;;;5094142;28;20031;-63
2021/09/06 03:42:04;;;;;;;6.38;5.78;;;22.60;70.10;;;;;;5077735;28;20064;-63
2021/09/06 03:44:30;;;;;;;6.55;5.95;;;22.60;69.30;;;;;;5092270;28;20534;-63
2021/09/06 03:46:55;;;;;;;6.32;5.72;;;22.60;69.60;;;;;;5091323;28;20103;-63
2021/09/06 03:49:21;;;;;;;6.70;5.53;;;22.60;69.00;;;;;;5092811;28;20081;-63
2021/09/06 03:51:47;;;;;;;6.05;5.47;;;22.60;68.80;;;;;;5093023;28;20350;-63
2021/09/06 03:54:12;;;;;;;6.32;5.72;;;22.60;69.30;;;;;;5092608;28;20470;-64
2021/09/06 03:56:38;;;;;;;6.85;6.15;;;22.70;69.30;;;;;;5092863;28;20047;-64
2021/09/06 03:59:04;;;;;;;7.93;6.03;;;22.70;69.60;;;;;;5093851;28;20477;-62
2021/09/06 04:01:29;;;;;;;7.63;6.90;;;22.70;69.30;;;;;;5082868;28;20470;-62
2021/09/06 04:03:55;;;;;;;7.38;6.47;;;22.80;69.10;;;;;;5084760;28;20028;-62
2021/09/06 04:06:21;;;;;;;6.80;6.10;;;22.80;69.10;;;;;;5092852;28;20032;-62
2021/09/06 04:08:46;;;;;;;9.27;6.63;;;22.80;68.50;;;;;;5094823;28;20073;-62
2021/09/06 04:11:13;;;;;;;7.75;6.72;;;22.90;68.60;;;;;;5092321;28;20073;-62
2021/09/06 04:13:39;;;;;;;9.13;7.07;;;22.80;68.50;;;;;;5093915;28;20024;-63
2021/09/06 04:16:05;;;;;;;7.55;6.63;;;22.90;69.10;;;;;;5092668;28;20453;-62
2021/09/06 04:18:31;;;;;;;8.32;7.15;;;22.90;68.80;;;;;;5092969;28;20036;-62
2021/09/06 04:20:56;;;;;;;10.10;7.25;;;22.90;70.70;;;;;;5102247;28;20070;-62
2021/09/06 04:23:22;;;;;;;7.70;6.55;;;22.80;72.20;;;;;;5083390;28;20038;-63
2021/09/06 04:25:48;;;;;;;9.52;7.32;;;22.90;73.90;;;;;;5074663;28;20016;-62
2021/09/06 04:28:14;;;;;;;7.78;7.07;;;22.80;73.40;;;;;;5074989;28;20495;-63
2021/09/06 04:30:39;;;;;;;8.10;7.40;;;22.70;75.00;;;;;;5091875;28;20073;-63
2021/09/06 04:33:26;;;;;;;8.15;7.38;;;22.70;76.10;;;;;;5093575;28;20162;-62
2021/09/06 04:35:52;;;;;;;8.32;7.38;;;22.70;79.30;;;;;;5077554;28;20052;-63
2021/09/06 04:38:18;;;;;;;8.75;6.45;;;22.60;77.10;;;;;;5093203;28;20066;-62
2021/09/06 04:40:44;;;;;;;7.82;7.15;;;22.50;76.80;;;;;;5092320;28;20063;-62
2021/09/06 04:43:09;;;;;;;10.20;9.25;;;22.50;77.40;;;;;;5093042;28;20031;-62
2021/09/06 04:45:35;;;;;;;10.57;9.57;;;22.40;79.30;;;;;;5092211;28;20039;-62
2021/09/06 04:48:01;;;;;;;10.77;8.23;;;22.10;80.70;;;;;;5093344;28;20028;-63
2021/09/06 04:50:27;;;;;;;10.35;9.43;;;22.10;81.80;;;;;;5092128;28;20055;-62
2021/09/06 04:52:55;;;;;;;10.35;9.05;;;22.10;83.80;;;;;;5074622;28;20032;-62
2021/09/06 04:55:21;;;;;;;9.70;8.63;;;22.10;84.80;;;;;;5091911;28;20098;-62
2021/09/06 04:57:47;;;;;;;9.50;8.60;;;22.10;85.50;;;;;;5074771;28;20502;-63
2021/09/06 05:00:12;;;;;;;9.38;8.48;;;22.10;86.10;;;;;;5091931;28;20030;-63
2021/09/06 05:02:38;;;;;;;10.13;9.10;;;22.30;86.10;;;;;;5092113;28;20558;-63
2021/09/06 05:05:04;;;;;;;10.20;8.93;;;22.30;86.40;;;;;;5093186;28;20365;-62
2021/09/06 05:07:30;;;;;;;12.40;9.27;;;22.30;85.00;;;;;;5091739;28;20445;-63
2021/09/06 05:09:55;;;;;;;8.70;7.80;;;22.40;85.30;;;;;;5092804;28;20127;-63
2021/09/06 05:12:23;;;;;;;11.10;8.15;;;22.40;85.40;;;;;;5091876;28;20036;-63
2021/09/06 05:14:49;;;;;;;10.65;8.23;;;22.50;85.10;;;;;;5091298;28;20036;-63
2021/09/06 05:17:14;;;;;;;10.90;8.70;;;22.40;84.70;;;;;;5089816;28;20039;-63
2021/09/06 05:19:40;;;;;;;10.38;9.38;;;22.40;85.50;;;;;;5092202;28;20012;-63
2021/09/06 05:22:06;;;;;;;11.10;8.93;;;22.40;85.90;;;;;;5092055;28;20417;-63
2021/09/06 05:24:31;;;;;;;10.23;9.20;;;22.50;85.50;;;;;;5074605;28;20016;-62
2021/09/06 05:26:57;;;;;;;9.38;8.23;;;22.50;85.90;;;;;;5091924;28;20477;-63
2021/09/06 05:29:22;;;;;;;12.02;9.13;;;22.50;85.30;;;;;;5089909;28;20020;-63
2021/09/06 05:31:48;;;;;;;9.60;8.48;;;22.40;85.20;;;;;;5092472;28;20036;-63
2021/09/06 05:34:13;;;;;;;9.55;8.50;;;22.40;85.50;;;;;;5094044;28;20481;-63
2021/09/06 05:36:39;;;;;;;11.88;8.65;;;22.50;85.20;;;;;;5101790;28;20442;-63
2021/09/06 05:39:05;;;;;;;9.00;7.43;;;22.50;85.10;;;;;;5092581;28;20024;-63
2021/09/06 05:41:30;;;;;;;12.02;8.30;;;22.50;85.20;;;;;;5090773;28;20054;-63
2021/09/06 05:43:56;;;;;;;9.23;8.15;;;22.50;85.00;;;;;;5091308;28;20143;-63
2021/09/06 05:46:21;;;;;;;10.30;8.77;;;22.50;84.30;;;;;;5089662;28;20035;-63
2021/09/06 05:48:47;;;;;;;9.88;8.40;;;22.40;84.20;;;;;;5091062;28;20066;-63
2021/09/06 05:51:13;;;;;;;9.48;8.48;;;22.40;84.70;;;;;;5091547;28;20035;-63
2021/09/06 05:53:38;;;;;;;11.15;9.05;;;22.50;85.10;;;;;;5091288;28;20027;-63
2021/09/06 05:56:04;;;;;;;9.52;8.63;;;22.50;84.40;;;;;;5058228;28;20079;-63
2021/09/06 05:58:30;;;;;;;10.70;9.10;;;22.60;84.90;;;;;;5077848;28;20032;-63
2021/09/06 06:00:55;;;;;;;10.90;9.40;;;22.60;85.20;;;;;;5060237;28;20020;-63
2021/09/06 06:03:21;;;;;;;11.65;10.13;;;22.70;85.00;;;;;;5096187;28;20118;-63
2021/09/06 06:05:47;;;;;;;9.77;8.75;;;22.60;84.60;;;;;;5077178;28;20017;-63
2021/09/06 06:08:12;;;;;;;10.50;9.00;;;22.50;84.30;;;;;;5083059;28;20110;-63
2021/09/06 06:10:38;;;;;;;10.23;8.85;;;22.60;84.90;;;;;;5081233;28;20020;-63
2021/09/06 06:13:03;;;;;;;13.43;10.10;;;22.60;84.40;;;;;;5074113;28;20035;-63
2021/09/06 06:15:29;;;;;;;10.20;9.20;;;22.60;84.30;;;;;;5095399;28;20118;-62
2021/09/06 06:17:55;;;;;;;11.13;9.77;;;22.60;84.10;;;;;;5094924;28;20032;-63
2021/09/06 06:20:20;;;;;;;10.25;9.25;;;22.60;84.70;;;;;;5076804;28;20381;-63
2021/09/06 06:22:46;;;;;;;10.88;9.05;;;22.60;84.00;;;;;;5094900;28;20101;-63
2021/09/06 06:25:12;;;;;;;12.23;9.27;;;22.60;84.00;;;;;;5095687;28;20089;-63
2021/09/06 06:27:38;;;;;;;9.95;9.07;;;22.70;83.80;;;;;;5094476;28;20054;-63
2021/09/06 06:30:04;;;;;;;10.45;9.35;;;22.70;82.70;;;;;;5095486;28;20462;-63
2021/09/06 06:32:30;;;;;;;11.93;9.85;;;22.60;83.50;;;;;;5093375;28;20481;-63
2021/09/06 06:34:55;;;;;;;12.38;10.20;;;22.60;83.70;;;;;;5093827;28;20095;-62
2021/09/06 06:37:21;;;;;;;11.18;9.80;;;22.70;83.50;;;;;;5076290;28;20036;-63
2021/09/06 06:39:46;;;;;;;15.60;10.95;;;22.60;84.20;;;;;;5095706;28;20028;-64
2021/09/06 06:42:12;;;;;;;12.88;11.25;;;22.60;84.20;;;;;;5073093;28;20016;-63
2021/09/06 06:44:40;;;;;;;13.23;11.15;;;22.60;84.40;;;;;;5093946;28;20493;-63
2021/09/06 06:47:05;;;;;;;13.13;11.80;;;22.50;84.10;;;;;;5094577;28;20032;-63
2021/09/06 06:49:31;;;;;;;16.25;10.57;;;22.60;84.10;;;;;;5095340;28;20077;-63
2021/09/06 06:51:57;;;;;;;12.23;10.75;;;22.70;84.30;;;;;;5075833;28;20032;-63
2021/09/06 06:54:22;;;;;;;12.38;11.32;;;22.80;84.60;;;;;;5095012;28;20412;-63
2021/09/06 06:56:48;;;;;;;14.43;11.30;;;22.80;84.40;;;;;;5093927;28;20044;-63
2021/09/06 06:59:14;;;;;;;14.60;11.10;;;22.80;84.00;;;;;;5095525;28;20016;-63
2021/09/06 07:01:40;;;;;;;19.27;12.20;;;22.80;83.50;;;;;;5093864;28;20389;-63
2021/09/06 07:04:05;;;;;;;16.02;11.27;;;22.80;83.50;;;;;;5075972;28;20032;-63
2021/09/06 07:06:31;;;;;;;14.93;11.80;;;22.80;82.90;;;;;;5074755;28;20035;-63
2021/09/06 07:09:00;;;;;;;12.35;11.15;;;22.80;83.10;;;;;;5095212;28;20470;-63
2021/09/06 07:11:26;;;;;;;20.10;11.88;;;22.80;83.50;;;;;;5093802;28;20105;-62
2021/09/06 07:13:51;;;;;;;11.77;10.60;;;22.80;82.40;;;;;;5093106;28;20123;-63
2021/09/06 07:16:17;;;;;;;12.43;10.32;;;22.80;81.60;;;;;;5094147;28;20028;-63
2021/09/06 07:18:43;;;;;;;14.32;10.13;;;23.00;81.40;;;;;;5076141;28;20032;-63
2021/09/06 07:21:09;;;;;;;13.05;9.95;;;22.80;81.20;;;;;;5076517;28;20028;-63
2021/09/06 07:23:34;;;;;;;16.35;10.65;;;22.90;81.00;;;;;;5098991;28;20023;-63
2021/09/06 07:26:00;;;;;;;12.65;10.10;;;22.80;81.70;;;;;;5111422;28;20073;-63
2021/09/06 07:28:26;;;;;;;13.30;10.48;;;22.90;82.60;;;;;;5075389;28;20118;-63
2021/09/06 07:30:51;;;;;;;13.63;10.82;;;22.90;82.00;;;;;;5094179;28;20024;-63
2021/09/06 07:33:17;;;;;;;14.38;11.02;;;23.00;82.10;;;;;;5092247;28;20024;-63
2021/09/06 07:35:42;;;;;;;12.90;10.82;;;23.00;81.00;;;;;;5093951;28;20141;-63
2021/09/06 07:38:08;;;;;;;13.20;10.95;;;23.00;81.50;;;;;;5092842;28;20043;-63
2021/09/06 07:40:34;;;;;;;12.90;10.85;;;23.00;80.80;;;;;;5093693;28;20024;-63
2021/09/06 07:42:59;;;;;;;10.68;9.30;;;23.00;80.20;;;;;;5092098;28;20411;-63
2021/09/06 07:45:25;;;;;;;14.90;10.70;;;23.00;78.00;;;;;;5075474;28;20035;-63
2021/09/06 07:47:51;;;;;;;14.02;10.10;;;23.00;79.40;;;;;;5094349;28;20114;-63
2021/09/06 07:50:19;;;;;;;13.00;9.75;;;23.00;78.20;;;;;;5094352;28;20039;-63
2021/09/06 07:52:45;;;;;;;14.15;10.18;;;23.10;78.90;;;;;;5081404;28;20035;-63
2021/09/06 07:55:11;;;;;;;13.07;8.88;;;23.20;78.50;;;;;;5093486;28;20111;-63
2021/09/06 07:57:37;;;;;;;11.43;9.45;;;23.20;79.00;;;;;;5092411;28;20390;-63
2021/09/06 08:00:04;;;;;;;12.80;9.32;;;23.30;77.80;;;;;;5093383;28;20028;-63
2021/09/06 08:02:49;;;;;;;10.20;7.72;;;23.40;77.80;;;;;;5092304;28;20115;-64
2021/09/06 08:05:28;;;;;;;10.32;7.40;;;23.40;73.40;;;;;;5093133;28;20524;-63
2021/09/06 08:07:54;;;;;;;13.18;7.63;;;23.50;71.70;;;;;;5091269;28;20550;-63
2021/09/06 08:10:20;;;;;;;11.25;6.57;;;23.50;72.30;;;;;;5092957;28;20024;-63
2021/09/06 08:12:46;;;;;;;5.72;5.10;;;23.60;69.80;;;;;;5089561;28;20032;-63
2021/09/06 08:15:12;;;;;;;7.13;5.43;;;23.70;67.40;;;;;;5074861;28;20016;-63
2021/09/06 08:17:39;;;;;;;6.22;4.88;;;23.70;67.70;;;;;;5091903;28;20032;-63
2021/09/06 08:20:07;;;;;;;7.35;5.68;;;23.80;65.90;;;;;;5092146;28;20073;-63
2021/09/06 08:22:34;;;;;;;7.60;5.65;;;23.80;65.40;;;;;;5076416;28;20366;-63
2021/09/06 08:25:00;;;;;;;6.25;5.40;;;23.90;64.60;;;;;;5113230;28;20048;-63
2021/09/06 08:27:26;;;;;;;7.97;5.50;;;23.90;63.20;;;;;;5075111;28;20024;-63
2021/09/06 08:29:52;;;;;;;8.13;4.80;;;23.90;62.60;;;;;;5093164;28;20039;-63
2021/09/06 08:32:18;;;;;;;6.63;5.70;;;24.00;63.40;;;;;;5091175;28;20416;-63
2021/09/06 08:34:49;;;;;;;7.40;4.88;;;24.10;63.50;;;;;;5093190;28;20032;-63
2021/09/06 08:37:15;;;;;;;8.10;5.15;;;24.10;63.50;;;;;;5092486;28;20154;-63
2021/09/06 08:39:41;;;;;;;7.55;4.45;;;24.20;62.70;;;;;;5092700;28;20427;-63
2021/09/06 08:42:08;;;;;;;6.50;5.25;;;24.30;61.50;;;;;;5092102;28;20028;-62
2021/09/06 08:44:35;;;;;;;8.05;5.88;;;24.30;61.00;;;;;;5092095;28;20034;-62
2021/09/06 08:47:01;;;;;;;9.07;5.88;;;24.30;60.10;;;;;;5092129;28;20028;-62
2021/09/06 08:49:26;;;;;;;9.07;4.63;;;24.40;59.30;;;;;;5092825;28;20107;-63
2021/09/06 08:51:52;;;;;;;6.40;4.57;;;24.50;58.90;;;;;;5091962;28;20020;-62
2021/09/06 08:54:18;;;;;;;5.90;4.63;;;24.50;57.90;;;;;;5075454;28;20030;-62
2021/09/06 08:56:44;;;;;;;4.68;4.28;;;24.60;57.00;;;;;;5092747;28;20067;-62
2021/09/06 08:59:09;;;;;;;8.73;4.88;;;24.60;57.20;;;;;;5072800;28;20123;-62
2021/09/06 09:01:40;;;;;;;8.40;5.47;;;24.60;57.20;;;;;;5074146;28;20035;-62
2021/09/06 09:04:21;;;;;;;5.68;4.82;;;24.70;57.30;;;;;;5091207;28;20100;-63
2021/09/06 09:06:53;;;;;;;4.88;4.38;;;24.80;55.90;;;;;;5073718;28;20032;-62
2021/09/06 09:09:41;;;;;;;9.18;7.88;;;24.70;56.50;;;;;;5092782;28;20032;-62
2021/09/06 09:12:18;;;;;;;6.25;4.72;;;24.70;54.50;;;;;;5089144;28;20032;-62
2021/09/06 09:14:50;;;;;;;6.72;6.13;;;24.80;54.30;;;;;;5091884;28;20478;-62
2021/09/06 09:17:16;;;;;;;9.73;7.85;;;25.00;54.10;;;;;;5092301;28;20036;-62
2021/09/06 09:19:43;;;;;;;9.55;6.68;;;25.00;54.40;;;;;;5091672;28;20379;-62
2021/09/06 09:22:11;;;;;;;6.38;5.70;;;25.00;54.60;;;;;;5073269;28;20028;-62
2021/09/06 09:24:37;;;;;;;7.43;6.78;;;25.00;54.80;;;;;;5089062;28;20038;-62
2021/09/06 09:27:08;;;;;;;5.85;5.25;;;25.10;54.80;;;;;;5092707;28;20062;-62
2021/09/06 09:29:34;;;;;;;7.85;4.80;;;25.20;54.60;;;;;;5074570;28;20028;-63
2021/09/06 09:32:09;;;;;;;7.13;4.47;;;25.20;47.50;;;;;;5078412;28;20059;-63
2021/09/06 09:34:42;;;;;;;6.90;4.70;;;25.30;43.90;;;;;;5095969;28;20024;-63
2021/09/06 09:37:09;;;;;;;5.97;5.33;;;25.30;41.80;;;;;;5096360;28;20071;-62
2021/09/06 09:39:35;;;;;;;5.00;4.50;;;25.40;42.20;;;;;;5095467;28;20334;-62
2021/09/06 09:42:08;;;;;;;6.40;4.32;;;25.50;40.30;;;;;;5093465;28;20051;-62
2021/09/06 09:44:47;;;;;;;5.07;4.15;;;25.50;40.40;;;;;;5107652;28;20393;-62
2021/09/06 09:47:14;;;;;;;6.70;4.10;;;25.40;38.50;;;;;;5116264;28;20315;-63
2021/09/06 09:49:41;;;;;;;7.90;4.47;;;25.50;38.30;;;;;;5097646;28;20154;-63
2021/09/06 09:52:07;;;;;;;8.35;4.80;;;25.60;37.70;;;;;;5112372;28;20031;-62
2021/09/06 09:54:34;;;;;;;5.95;4.70;;;25.50;38.20;;;;;;5099538;28;20032;-63
2021/09/06 09:57:00;;;;;;;8.70;5.40;;;25.60;37.60;;;;;;5095559;28;20092;-62
2021/09/06 09:59:26;;;;;;;5.72;4.78;;;25.50;37.30;;;;;;5076550;28;20028;-63
2021/09/06 10:02:09;;;;;;;5.57;4.72;;;25.70;37.10;;;;;;5101950;28;20555;-63
2021/09/06 10:04:42;;;;;;;6.22;4.40;;;25.80;37.40;;;;;;5101686;28;20081;-63
2021/09/06 10:07:09;;;;;;;4.75;4.22;;;25.80;37.80;;;;;;5115682;28;20087;-63
2021/09/06 10:09:42;;;;;;;8.10;5.32;;;25.80;37.50;;;;;;5099284;28;20107;-63
2021/09/06 10:12:09;;;;;;;5.13;4.60;;;25.90;37.50;;;;;;5072291;28;20020;-63
2021/09/06 10:14:34;;;;;;;5.40;4.85;;;26.00;37.40;;;;;;5093436;28;20047;-63
2021/09/06 10:17:07;;;;;;;7.50;4.70;;;26.00;39.90;;;;;;5094653;28;20040;-62
2021/09/06 10:19:48;;;;;;;5.00;4.50;;;26.20;42.80;;;;;;5090931;28;20185;-63
2021/09/06 10:22:26;;;;;;;5.32;4.50;;;26.30;46.90;;;;;;5093019;28;20032;-63
2021/09/06 10:24:58;;;;;;;5.65;4.10;;;26.20;45.90;;;;;;5092109;28;20867;-63
2021/09/06 10:27:24;;;;;;;5.30;4.57;;;26.20;46.70;;;;;;5092880;28;20497;-63
2021/09/06 10:30:10;;;;;;;6.85;5.22;;;26.40;47.30;;;;;;5091786;28;20024;-63
2021/09/06 10:32:41;;;;;;;7.38;5.88;;;26.40;47.10;;;;;;5093191;28;20043;-62
2021/09/06 10:35:22;;;;;;;6.25;5.15;;;26.30;46.90;;;;;;5095944;28;20031;-62
2021/09/06 10:38:01;;;;;;;5.45;4.95;;;26.30;47.20;;;;;;5090585;28;20040;-63
2021/09/06 10:40:36;;;;;;;6.93;4.93;;;26.50;47.00;;;;;;5072755;28;20227;-62
2021/09/06 10:43:28;;;;;;;8.63;4.90;;;26.40;47.90;;;;;;5091301;28;20028;-62
2021/09/06 10:45:54;;;;;;;5.20;4.70;;;26.60;43.90;;;;;;5080679;28;20122;-62
2021/09/06 10:48:21;;;;;;;5.50;5.00;;;26.60;43.60;;;;;;5085835;28;20414;-62
2021/09/06 10:50:49;;;;;;;5.90;4.85;;;26.70;45.70;;;;;;5092329;28;20036;-62
2021/09/06 10:53:19;;;;;;;6.57;4.75;;;26.70;42.60;;;;;;5091570;28;20055;-63
2021/09/06 10:55:53;;;;;;;6.63;5.50;;;26.70;42.50;;;;;;5091849;28;20067;-62
2021/09/06 10:58:27;;;;;;;5.47;4.90;;;26.80;41.70;;;;;;5091591;28;20047;-63
2021/09/06 11:01:05;;;;;;;5.78;4.95;;;27.00;41.80;;;;;;5092997;28;20485;-62
2021/09/06 11:03:38;;;;;;;5.32;4.82;;;27.10;56.20;;;;;;5092021;28;20038;-63
2021/09/06 11:06:04;;;;;;;5.73;4.70;;;27.20;40.50;;;;;;5075280;28;20146;-63
2021/09/06 11:08:34;;;;;;;5.28;4.78;;;27.30;40.30;;;;;;5093890;28;20035;-63
2021/09/06 11:11:03;;;;;;;6.20;5.25;;;27.30;41.70;;;;;;5094039;28;20021;-63
2021/09/06 11:13:39;;;;;;;4.90;4.40;;;27.30;38.90;;;;;;5092884;28;20020;-63
2021/09/06 11:16:10;;;;;;;5.38;4.88;;;27.30;41.80;;;;;;5095229;28;20058;-63
2021/09/06 11:18:40;;;;;;;5.00;4.60;;;;;;;;;;5075180;28;20032;-62
2021/09/06 11:21:06;;;;;;;4.95;4.50;;;27.50;53.30;;;;;;5098117;28;20027;-63
2021/09/06 11:23:35;;;;;;;5.95;5.35;;;27.40;38.20;;;;;;5078372;28;20031;-63
2021/09/06 11:26:01;;;;;;;7.78;5.53;;;27.70;38.30;;;;;;5085902;28;20031;-63
2021/09/06 11:28:27;;;;;;;7.25;5.38;;;27.80;43.10;;;;;;5090180;28;20101;-63
2021/09/06 11:30:53;;;;;;;6.78;4.80;;;27.70;38.30;;;;;;5091278;28;20477;-62
2021/09/06 11:33:18;;;;;;;5.50;5.00;;;27.90;39.60;;;;;;5090476;28;20066;-63
2021/09/06 11:35:46;;;;;;;7.53;4.60;;;27.70;33.80;;;;;;5088091;28;20052;-63
2021/09/06 11:38:13;;;;;;;7.30;5.35;;;27.90;30.40;;;;;;5090670;28;20409;-63
2021/09/06 11:40:40;;;;;;;11.00;5.53;;;28.10;35.10;;;;;;5071965;28;20074;-63
2021/09/06 11:43:08;;;;;;;5.88;5.35;;;;;;;;;;5091081;28;20032;-63
2021/09/06 11:45:34;;;;;;;5.35;4.95;;;28.30;45.80;;;;;;5089993;28;20035;-63
2021/09/06 11:48:05;;;;;;;8.52;5.57;;;28.30;22.10;;;;;;5092113;28;20089;-63
2021/09/06 11:50:34;;;;;;;5.05;4.53;;;28.50;23.40;;;;;;5092463;28;20027;-63
2021/09/06 11:53:05;;;;;;;7.43;5.80;;;28.70;35.50;;;;;;5090704;28;20431;-63
2021/09/06 11:55:31;;;;;;;7.45;5.22;;;28.50;50.90;;;;;;5074008;28;20052;-63
2021/09/06 11:58:12;;;;;;;8.68;4.70;;;29.50;33.50;;;;;;5092447;28;20040;-64
2021/09/06 12:00:39;;;;;;;5.95;5.45;;;31.00;20.50;;;;;;5092631;28;20059;-63
2021/09/06 12:03:06;;;;;;;10.07;5.47;;;31.00;17.90;;;;;;5111989;28;20369;-64
2021/09/06 12:05:47;;;;;;;6.85;4.95;;;31.50;19.10;;;;;;5089895;28;20063;-64
2021/09/06 12:08:14;;;;;;;10.98;5.25;;;;;;;;;;5092897;28;20031;-63
2021/09/06 12:10:42;;;;;;;5.53;5.00;;;32.70;44.70;;;;;;5092233;28;20385;-63
2021/09/06 12:13:10;;;;;;;6.10;4.65;;;33.40;38.00;;;;;;5098030;28;20019;-64
2021/09/06 12:15:57;;;;;;;7.72;5.38;;;33.10;19.10;;;;;;5092875;28;20031;-64
2021/09/06 12:18:36;;;;;;;5.75;5.25;;;34.60;13.60;;;;;;5086621;28;20032;-64
2021/09/06 12:21:17;;;;;;;6.25;4.97;;;35.90;16.30;;;;;;5081830;28;20027;-64
2021/09/06 12:23:56;;;;;;;6.10;4.70;;;36.10;36.00;;;;;;5091756;28;20915;-64
2021/09/06 12:26:22;;;;;;;5.43;4.93;;;36.60;22.30;;;;;;5092630;28;20176;-64
2021/09/06 12:28:49;;;;;;;8.68;5.10;;;37.10;12.60;;;;;;5091998;28;20547;-64
2021/09/06 12:31:16;;;;;;;5.95;5.00;;;37.00;13.20;;;;;;5092918;28;20107;-64
2021/09/06 12:33:41;;;;;;;7.07;5.40;;;36.40;11.40;;;;;;5089204;28;20541;-64
2021/09/06 12:36:07;;;;;;;7.38;5.30;;;38.00;11.00;;;;;;5085387;28;20111;-64
2021/09/06 12:38:34;;;;;;;5.82;5.28;;;;;;;;;;5091484;28;20110;-63
2021/09/06 12:40:59;;;;;;;7.65;5.03;;;41.60;29.50;;;;;;5092430;28;20103;-63
2021/09/06 12:43:25;;;;;;;6.13;5.63;;;42.30;18.00;;;;;;5092394;28;20433;-63
2021/09/06 12:45:51;;;;;;;8.10;6.25;;;42.70;7.60;;;;;;5091423;28;20032;-63